Time;durP1;ratioP1;P1;durP2;ratioP2;P2;SDS_P1;SDS_P2;PMS_P1;PMS_P2;Temp;Humidity;BMP_temperature;BMP_pressure;BME280_temperature;BME280_humidity;BME280_pressure;Samples;Min_cycle;Max_cycle;Signal;HPM_P1;HPM_P2
2021/04/04 00:02:17;;;;;;;19.70;6.43;;;5.50;99.90;;;;;;5011043;28;20289;-80
2021/04/04 00:04:43;;;;;;;8.37;5.13;;;5.50;99.90;;;;;;5008997;28;20564;-79
2021/04/04 00:07:08;;;;;;;13.47;5.23;;;5.50;99.90;;;;;;5007577;28;20449;-79
2021/04/04 00:09:34;;;;;;;11.23;5.60;;;5.50;99.90;;;;;;4991177;28;20430;-79
2021/04/04 00:12:00;;;;;;;12.60;5.63;;;5.50;99.90;;;;;;5009090;28;20639;-80
2021/04/04 00:14:25;;;;;;;14.93;5.53;;;5.50;99.90;;;;;;5007203;28;20186;-80
2021/04/04 00:16:51;;;;;;;14.70;5.40;;;5.60;99.90;;;;;;5005984;28;20235;-79
2021/04/04 00:19:17;;;;;;;12.20;4.87;;;5.60;99.90;;;;;;5011042;28;20209;-79
2021/04/04 00:21:43;;;;;;;12.93;5.10;;;5.50;99.90;;;;;;5010299;28;20611;-79
2021/04/04 00:24:09;;;;;;;5.63;4.47;;;5.60;99.90;;;;;;5008596;28;20529;-80
2021/04/04 00:26:35;;;;;;;15.57;5.53;;;5.50;99.90;;;;;;5007043;28;20179;-79
2021/04/04 00:29:05;;;;;;;10.87;4.50;;;5.50;99.90;;;;;;4984243;28;20457;-78
2021/04/04 00:31:31;;;;;;;18.77;4.40;;;5.50;99.90;;;;;;5008431;28;20433;-78
2021/04/04 00:33:56;;;;;;;10.10;4.90;;;5.50;99.90;;;;;;5012051;28;20520;-79
2021/04/04 00:36:22;;;;;;;16.03;4.97;;;5.40;99.90;;;;;;5010169;28;20655;-79
2021/04/04 00:38:48;;;;;;;17.20;7.00;;;5.50;99.90;;;;;;5011819;28;20178;-78
2021/04/04 00:41:13;;;;;;;15.00;5.43;;;5.50;99.90;;;;;;5011434;28;20521;-78
2021/04/04 00:43:39;;;;;;;25.80;5.93;;;5.30;99.90;;;;;;5010134;28;20179;-78
2021/04/04 00:46:05;;;;;;;16.13;5.40;;;5.30;99.90;;;;;;5010555;28;20213;-79
2021/04/04 00:48:30;;;;;;;16.40;5.80;;;5.30;99.90;;;;;;5011631;28;20194;-79
2021/04/04 00:50:56;;;;;;;8.27;4.53;;;5.30;99.90;;;;;;5002706;28;20240;-78
2021/04/04 00:53:22;;;;;;;16.20;5.87;;;5.30;99.90;;;;;;5010788;28;20178;-79
2021/04/04 00:55:48;;;;;;;16.07;6.37;;;5.20;99.90;;;;;;5008674;28;20571;-78
2021/04/04 00:58:14;;;;;;;10.80;4.33;;;5.30;99.90;;;;;;5009825;28;20217;-78
2021/04/04 01:00:39;;;;;;;20.93;6.30;;;5.30;99.90;;;;;;5011323;28;20241;-78
2021/04/04 01:03:05;;;;;;;14.13;6.00;;;5.30;99.90;;;;;;5011835;28;20437;-78
2021/04/04 01:05:39;;;;;;;13.67;6.50;;;5.30;99.90;;;;;;4985951;28;20214;-78
2021/04/04 01:08:06;;;;;;;7.50;5.57;;;5.30;99.90;;;;;;5011684;28;20480;-78
2021/04/04 01:10:36;;;;;;;14.93;4.93;;;5.20;99.90;;;;;;4986058;28;20478;-79
2021/04/04 01:13:16;;;;;;;9.47;5.20;;;5.20;99.90;;;;;;5011302;28;20516;-79
2021/04/04 01:16:06;;;;;;;15.93;4.40;;;5.20;99.90;;;;;;5000133;28;21071;-79
2021/04/04 01:18:40;;;;;;;15.53;5.10;;;5.20;99.90;;;;;;5006389;28;20437;-80
2021/04/04 01:21:15;;;;;;;17.43;5.90;;;5.20;99.90;;;;;;5009141;28;21158;-80
2021/04/04 01:23:59;;;;;;;12.70;5.50;;;5.10;99.90;;;;;;5006709;28;20433;-80
2021/04/04 01:27:03;;;;;;;14.00;5.37;;;5.10;99.90;;;;;;5008517;28;20437;-80
2021/04/04 01:29:31;;;;;;;15.73;5.00;;;5.20;99.90;;;;;;5008150;28;20451;-79
2021/04/04 01:31:57;;;;;;;15.57;5.47;;;5.20;99.90;;;;;;5008247;28;20438;-80
2021/04/04 01:34:28;;;;;;;9.87;4.40;;;5.20;99.90;;;;;;5008561;28;20488;-79
2021/04/04 01:37:00;;;;;;;13.00;5.20;;;5.10;99.90;;;;;;5008509;28;20179;-79
2021/04/04 01:39:31;;;;;;;16.30;5.73;;;5.10;99.90;;;;;;5008537;28;20533;-80
2021/04/04 01:41:58;;;;;;;11.53;4.73;;;5.00;99.90;;;;;;5010350;28;20441;-79
2021/04/04 01:44:25;;;;;;;11.53;4.83;;;5.10;99.90;;;;;;5006129;28;20446;-80
2021/04/04 01:46:54;;;;;;;10.63;5.10;;;5.10;99.90;;;;;;5006868;28;20894;-79
2021/04/04 01:49:21;;;;;;;8.50;4.33;;;5.00;99.90;;;;;;4991384;28;20429;-80
2021/04/04 01:51:47;;;;;;;13.93;6.40;;;4.90;99.90;;;;;;5009435;28;20476;-80
2021/04/04 01:54:16;;;;;;;12.20;5.77;;;4.90;99.90;;;;;;5009853;28;20429;-80
2021/04/04 01:56:42;;;;;;;11.60;4.87;;;4.90;99.90;;;;;;5003753;28;20447;-80
2021/04/04 01:59:10;;;;;;;14.77;6.87;;;4.90;99.90;;;;;;5008460;28;20450;-80
2021/04/04 02:01:36;;;;;;;9.63;5.40;;;4.90;99.90;;;;;;4996389;28;20464;-79
2021/04/04 02:04:07;;;;;;;11.07;5.03;;;4.90;99.90;;;;;;5012891;28;20445;-80
2021/04/04 02:06:37;;;;;;;10.10;4.50;;;4.90;99.90;;;;;;4987936;28;20495;-80
2021/04/04 02:09:09;;;;;;;14.97;5.37;;;4.90;99.90;;;;;;5010994;28;20453;-79
2021/04/04 02:11:37;;;;;;;15.93;4.23;;;5.00;99.90;;;;;;5012756;28;20728;-79
2021/04/04 02:14:07;;;;;;;10.47;4.97;;;5.00;99.90;;;;;;5010910;28;20848;-79
2021/04/04 02:16:36;;;;;;;14.50;5.37;;;5.00;99.90;;;;;;5012518;28;20537;-79
2021/04/04 02:19:04;;;;;;;10.17;4.93;;;5.00;99.90;;;;;;5012912;28;20484;-80
2021/04/04 02:21:30;;;;;;;16.33;4.60;;;4.90;99.90;;;;;;5012490;28;20922;-80
2021/04/04 02:24:00;;;;;;;10.47;4.63;;;4.90;99.90;;;;;;5011230;28;20433;-80
2021/04/04 02:26:29;;;;;;;14.57;4.40;;;4.90;99.90;;;;;;5011147;28;20480;-79
2021/04/04 02:28:54;;;;;;;18.77;4.87;;;4.90;99.90;;;;;;5013123;28;20460;-79
2021/04/04 02:31:20;;;;;;;12.43;3.77;;;4.90;99.90;;;;;;5013716;28;20430;-80
2021/04/04 02:33:56;;;;;;;11.57;4.47;;;4.80;99.90;;;;;;4994840;28;20179;-80
2021/04/04 02:36:25;;;;;;;11.37;5.50;;;4.80;99.90;;;;;;5012431;28;20460;-80
2021/04/04 02:39:18;;;;;;;13.73;4.90;;;4.80;99.90;;;;;;5012209;28;20429;-80
2021/04/04 02:41:46;;;;;;;11.23;3.87;;;4.90;99.90;;;;;;5004709;28;20906;-79
2021/04/04 02:44:13;;;;;;;5.60;4.13;;;4.90;99.90;;;;;;5007932;28;20437;-79
2021/04/04 02:46:41;;;;;;;12.37;4.57;;;4.90;99.90;;;;;;5011752;28;20448;-80
2021/04/04 02:49:09;;;;;;;25.33;5.43;;;4.90;99.90;;;;;;5003365;28;20540;-80
2021/04/04 02:51:39;;;;;;;13.40;5.50;;;4.90;99.90;;;;;;5011491;28;20770;-80
2021/04/04 02:54:07;;;;;;;11.47;4.83;;;4.90;99.90;;;;;;5011795;28;20429;-79
2021/04/04 02:56:42;;;;;;;16.80;5.20;;;4.90;99.90;;;;;;5011311;28;20451;-80
2021/04/04 02:59:37;;;;;;;10.67;4.17;;;4.90;99.90;;;;;;5012170;28;20436;-80
2021/04/04 03:02:06;;;;;;;12.50;4.60;;;4.90;99.90;;;;;;5009770;28;20863;-79
2021/04/04 03:04:35;;;;;;;10.40;4.30;;;5.00;99.90;;;;;;5013195;28;20437;-80
2021/04/04 03:07:01;;;;;;;12.07;4.00;;;5.00;99.90;;;;;;5009525;28;20528;-80
2021/04/04 03:09:31;;;;;;;22.30;4.70;;;4.90;99.90;;;;;;5011678;28;20907;-80
2021/04/04 03:11:57;;;;;;;13.50;4.37;;;4.90;99.90;;;;;;5010644;28;20433;-80
2021/04/04 03:14:24;;;;;;;12.40;4.47;;;4.90;99.90;;;;;;5013482;28;20481;-79
2021/04/04 03:16:50;;;;;;;12.70;5.23;;;4.90;99.90;;;;;;4985351;28;20433;-80
2021/04/04 03:19:17;;;;;;;9.63;4.43;;;5.00;99.90;;;;;;5008812;28;20440;-80
2021/04/04 03:21:45;;;;;;;14.57;3.83;;;4.90;99.90;;;;;;4995035;28;20438;-79
2021/04/04 03:24:13;;;;;;;12.90;4.27;;;4.90;99.90;;;;;;5010074;28;20425;-80
2021/04/04 03:26:40;;;;;;;10.20;4.47;;;4.80;99.90;;;;;;5011258;28;20433;-79
2021/04/04 03:29:08;;;;;;;10.70;4.40;;;4.80;99.90;;;;;;5008723;28;20838;-79
2021/04/04 03:31:35;;;;;;;13.47;4.20;;;4.90;99.90;;;;;;5009214;28;20429;-79
2021/04/04 03:34:01;;;;;;;8.00;4.10;;;5.00;99.90;;;;;;5010468;28;20441;-79
2021/04/04 03:36:28;;;;;;;10.47;3.70;;;5.00;99.90;;;;;;4986180;28;20449;-80
2021/04/04 03:38:55;;;;;;;9.30;4.63;;;5.00;99.90;;;;;;5013000;28;20460;-80
2021/04/04 03:41:28;;;;;;;16.53;4.83;;;5.00;99.90;;;;;;4994867;28;20557;-80
2021/04/04 03:43:55;;;;;;;9.60;3.70;;;5.00;99.90;;;;;;5012782;28;20438;-80
2021/04/04 03:46:25;;;;;;;6.30;3.60;;;4.90;99.90;;;;;;5011502;28;20741;-79
2021/04/04 03:48:54;;;;;;;10.67;4.07;;;4.90;99.90;;;;;;5009026;28;20461;-80
2021/04/04 03:51:24;;;;;;;9.10;3.20;;;5.00;99.90;;;;;;5007561;28;20440;-79
2021/04/04 03:53:52;;;;;;;7.60;3.70;;;5.00;99.90;;;;;;5011542;28;20425;-80
2021/04/04 03:56:29;;;;;;;13.33;4.30;;;5.00;99.90;;;;;;5010035;28;20448;-80
2021/04/04 03:58:57;;;;;;;11.90;4.27;;;5.00;99.90;;;;;;5010881;28;20417;-80
2021/04/04 04:01:25;;;;;;;5.93;3.40;;;5.00;99.90;;;;;;5008764;28;20917;-80
2021/04/04 04:03:53;;;;;;;8.40;3.70;;;5.10;99.90;;;;;;5011234;28;20584;-80
2021/04/04 04:06:19;;;;;;;8.63;4.20;;;5.20;99.90;;;;;;5009498;28;20440;-80
2021/04/04 04:08:45;;;;;;;8.70;3.40;;;5.10;99.90;;;;;;5012122;28;20556;-80
2021/04/04 04:11:14;;;;;;;5.77;3.77;;;5.00;99.90;;;;;;5009791;28;20457;-80
2021/04/04 04:13:41;;;;;;;5.53;3.40;;;5.00;99.90;;;;;;5011231;28;20421;-80
2021/04/04 04:16:14;;;;;;;7.53;3.50;;;5.00;99.90;;;;;;5008938;28;20425;-80
2021/04/04 04:18:44;;;;;;;8.10;3.20;;;5.00;99.90;;;;;;5010576;28;20910;-80
2021/04/04 04:21:15;;;;;;;6.13;3.43;;;4.90;99.90;;;;;;5010658;28;20430;-80
2021/04/04 04:23:41;;;;;;;12.60;3.60;;;4.90;99.90;;;;;;5007761;28;20446;-80
2021/04/04 04:26:16;;;;;;;8.03;3.20;;;4.90;99.90;;;;;;5011189;28;20433;-80
2021/04/04 04:28:42;;;;;;;12.77;4.20;;;5.00;99.90;;;;;;5007914;28;20906;-80
2021/04/04 04:31:21;;;;;;;4.50;2.60;;;5.00;99.90;;;;;;4986558;28;20429;-79
2021/04/04 04:33:51;;;;;;;7.07;3.57;;;4.90;99.90;;;;;;5010700;28;20780;-79
2021/04/04 04:36:18;;;;;;;10.97;4.33;;;5.00;99.90;;;;;;5009336;28;20816;-80
2021/04/04 04:38:44;;;;;;;10.13;4.07;;;4.90;99.90;;;;;;5010755;28;21001;-79
2021/04/04 04:41:13;;;;;;;8.73;2.93;;;5.00;99.90;;;;;;5009680;28;20461;-79
2021/04/04 04:43:44;;;;;;;6.57;3.30;;;5.00;99.90;;;;;;5009332;28;20444;-80
2021/04/04 04:46:13;;;;;;;7.93;2.80;;;5.00;99.90;;;;;;5008248;28;20438;-80
2021/04/04 04:48:39;;;;;;;5.47;2.77;;;5.00;99.90;;;;;;5009589;28;20898;-81
2021/04/04 04:51:06;;;;;;;8.37;5.07;;;5.00;99.90;;;;;;5007066;28;20464;-79
2021/04/04 04:53:32;;;;;;;12.30;3.10;;;5.00;99.90;;;;;;5009456;28;20429;-80
2021/04/04 04:56:02;;;;;;;10.50;3.17;;;5.00;99.90;;;;;;5008566;28;20491;-80
2021/04/04 04:58:30;;;;;;;6.77;2.70;;;4.90;99.90;;;;;;4992044;28;20507;-80
2021/04/04 05:00:59;;;;;;;5.40;2.70;;;4.90;99.90;;;;;;4993204;28;20432;-79
2021/04/04 05:03:25;;;;;;;11.40;3.40;;;4.90;99.90;;;;;;5009926;28;20441;-80
2021/04/04 05:05:51;;;;;;;5.73;3.80;;;5.00;99.90;;;;;;5007982;28;20440;-79
2021/04/04 05:08:19;;;;;;;7.80;3.30;;;5.10;99.90;;;;;;5005045;28;20473;-80
2021/04/04 05:10:45;;;;;;;9.50;3.47;;;5.00;99.90;;;;;;5009192;28;20437;-79
2021/04/04 05:13:12;;;;;;;13.20;3.20;;;5.00;99.90;;;;;;5009764;28;20760;-79
2021/04/04 05:15:41;;;;;;;9.80;3.80;;;5.00;99.90;;;;;;5010918;28;20434;-80
2021/04/04 05:18:07;;;;;;;8.60;3.00;;;5.00;99.90;;;;;;5009011;28;20846;-80
2021/04/04 05:20:34;;;;;;;8.50;2.53;;;5.00;99.90;;;;;;5009614;28;20437;-80
2021/04/04 05:23:01;;;;;;;13.80;3.53;;;5.10;99.90;;;;;;5006694;28;20504;-80
2021/04/04 05:25:28;;;;;;;6.43;3.33;;;5.00;99.90;;;;;;5008225;28;20437;-80
2021/04/04 05:27:57;;;;;;;7.23;3.40;;;4.90;99.90;;;;;;5008093;28;20449;-80
2021/04/04 05:30:25;;;;;;;7.30;2.97;;;5.00;99.90;;;;;;5009861;28;20499;-80
2021/04/04 05:32:50;;;;;;;6.40;2.70;;;5.00;99.90;;;;;;5007471;28;20440;-80
2021/04/04 05:35:21;;;;;;;15.57;4.20;;;5.10;99.90;;;;;;4987299;28;20434;-80
2021/04/04 05:37:47;;;;;;;9.50;2.87;;;5.10;99.90;;;;;;5013262;28;20517;-79
2021/04/04 05:40:25;;;;;;;7.70;3.03;;;5.10;99.90;;;;;;5010807;28;20907;-79
2021/04/04 05:42:56;;;;;;;12.47;3.30;;;5.20;99.90;;;;;;5014078;28;20522;-79
2021/04/04 05:45:45;;;;;;;11.23;3.60;;;5.20;99.90;;;;;;5011433;28;20885;-79
2021/04/04 05:48:11;;;;;;;12.70;3.67;;;5.20;99.90;;;;;;5014849;28;20456;-79
2021/04/04 05:51:10;;;;;;;4.60;3.10;;;5.20;99.90;;;;;;5004944;28;20487;-79
2021/04/04 05:53:57;;;;;;;7.63;2.50;;;5.30;99.90;;;;;;5011360;28;20193;-79
2021/04/04 05:56:30;;;;;;;6.13;2.67;;;5.30;99.90;;;;;;5009952;28;20443;-79
2021/04/04 05:59:05;;;;;;;7.93;2.53;;;5.30;99.90;;;;;;5011057;28;20437;-79
2021/04/04 06:01:34;;;;;;;9.33;3.30;;;5.30;99.90;;;;;;5011586;28;20442;-79
2021/04/04 06:04:23;;;;;;;7.27;2.70;;;5.40;99.90;;;;;;5010134;28;20425;-80
2021/04/04 06:07:03;;;;;;;4.30;3.00;;;5.50;99.90;;;;;;5009290;28;20459;-79
2021/04/04 06:10:06;;;;;;;6.87;2.87;;;5.50;99.90;;;;;;5011662;28;20432;-79
2021/04/04 06:12:53;;;;;;;16.37;3.20;;;5.40;99.90;;;;;;5012202;28;20432;-80
2021/04/04 06:15:57;;;;;;;4.90;2.77;;;5.50;99.90;;;;;;5014810;28;20458;-79
2021/04/04 06:18:57;;;;;;;9.50;3.10;;;5.50;99.90;;;;;;5005166;28;20542;-79
2021/04/04 06:21:35;;;;;;;6.03;3.37;;;5.40;99.90;;;;;;4903368;28;20447;-79
2021/04/04 06:24:19;;;;;;;6.70;3.20;;;5.30;99.90;;;;;;5011752;28;20520;-79
2021/04/04 06:27:24;;;;;;;6.70;3.50;;;5.30;99.90;;;;;;5011144;28;20433;-79
2021/04/04 06:30:01;;;;;;;13.60;4.33;;;5.40;99.90;;;;;;5012379;28;20433;-79
2021/04/04 06:32:45;;;;;;;9.40;3.73;;;5.50;99.90;;;;;;5005141;28;20441;-79
2021/04/04 06:35:25;;;;;;;8.07;3.07;;;5.40;99.90;;;;;;5012557;28;20462;-78
2021/04/04 06:37:50;;;;;;;11.00;3.80;;;5.50;99.90;;;;;;5008310;28;20725;-79
2021/04/04 06:40:27;;;;;;;8.53;3.13;;;5.50;99.90;;;;;;5003051;28;20429;-78
2021/04/04 06:42:56;;;;;;;8.60;2.67;;;5.60;99.90;;;;;;4991652;28;20194;-79
2021/04/04 06:45:48;;;;;;;6.97;3.40;;;5.60;99.90;;;;;;5005670;28;21900;-79
2021/04/04 06:48:51;;;;;;;14.70;3.37;;;5.60;99.90;;;;;;5007709;28;20461;-78
2021/04/04 06:51:51;;;;;;;4.00;2.70;;;5.60;99.90;;;;;;5009959;28;20437;-79
2021/04/04 06:54:27;;;;;;;6.43;3.17;;;5.80;99.90;;;;;;5012750;28;20528;-80
2021/04/04 06:57:10;;;;;;;8.10;3.13;;;5.80;99.90;;;;;;5005630;28;20445;-79
2021/04/04 06:59:56;;;;;;;7.23;3.77;;;5.70;99.90;;;;;;5003650;28;20433;-79
2021/04/04 07:02:28;;;;;;;3.50;3.00;;;5.70;99.90;;;;;;5003760;28;20428;-80
2021/04/04 07:04:56;;;;;;;7.80;3.40;;;5.60;99.90;;;;;;5009550;28;20426;-81
2021/04/04 07:07:36;;;;;;;6.00;3.07;;;5.70;99.90;;;;;;5007635;28;20456;-80
2021/04/04 07:10:33;;;;;;;5.53;3.00;;;5.70;99.90;;;;;;5003869;28;20516;-81
2021/04/04 07:13:11;;;;;;;10.70;2.80;;;5.80;99.90;;;;;;5008984;28;20776;-79
2021/04/04 07:16:09;;;;;;;4.80;2.97;;;5.90;99.90;;;;;;5003623;28;20425;-79
2021/04/04 07:18:56;;;;;;;7.93;2.70;;;5.90;99.90;;;;;;5009795;28;20452;-81
2021/04/04 07:21:39;;;;;;;10.63;3.53;;;6.00;99.90;;;;;;5014844;28;20904;-82
2021/04/04 07:24:38;;;;;;;6.80;3.70;;;5.90;99.90;;;;;;5012715;28;20480;-81
2021/04/04 07:27:14;;;;;;;3.90;2.37;;;5.90;99.90;;;;;;5011008;28;20503;-82
2021/04/04 07:30:31;;;;;;;4.13;2.83;;;5.90;99.90;;;;;;5010690;28;20427;-80
2021/04/04 07:33:09;;;;;;;7.27;3.03;;;5.90;99.90;;;;;;4991501;28;21959;-80
2021/04/04 07:35:46;;;;;;;6.37;3.20;;;5.80;99.90;;;;;;5003049;28;20744;-80
2021/04/04 07:38:31;;;;;;;6.37;3.40;;;5.80;99.90;;;;;;5004674;28;20429;-80
2021/04/04 07:41:23;;;;;;;6.80;3.30;;;5.80;99.90;;;;;;5006890;28;20491;-80
2021/04/04 07:43:53;;;;;;;6.30;3.00;;;5.80;99.90;;;;;;5004538;28;20464;-80
2021/04/04 07:46:50;;;;;;;4.40;2.73;;;5.80;99.90;;;;;;5007750;28;20925;-82
2021/04/04 07:49:44;;;;;;;8.57;3.57;;;5.90;99.90;;;;;;4974821;28;20531;-81
2021/04/04 07:52:24;;;;;;;5.07;3.00;;;5.90;99.90;;;;;;4992430;28;20900;-80
2021/04/04 07:55:08;;;;;;;5.90;3.13;;;5.90;99.90;;;;;;5009260;28;20429;-80
2021/04/04 07:57:50;;;;;;;4.03;2.90;;;5.80;99.90;;;;;;5005137;28;20503;-80
2021/04/04 08:00:16;;;;;;;6.20;2.90;;;5.80;99.90;;;;;;5006009;28;20969;-80
2021/04/04 08:02:54;;;;;;;6.53;3.63;;;5.80;99.90;;;;;;5006328;28;21422;-77
2021/04/04 08:05:25;;;;;;;4.20;2.60;;;5.90;99.90;;;;;;5001758;28;20849;-79
2021/04/04 08:07:57;;;;;;;7.63;3.10;;;6.00;99.90;;;;;;5003356;28;20453;-79
2021/04/04 08:10:30;;;;;;;6.97;3.53;;;6.00;99.90;;;;;;5006932;28;20433;-80
2021/04/04 08:13:41;;;;;;;10.50;4.70;;;5.90;99.90;;;;;;4998697;28;20434;-79
2021/04/04 08:16:07;;;;;;;6.27;3.73;;;5.90;99.90;;;;;;4998869;28;20464;-79
2021/04/04 08:18:32;;;;;;;7.83;3.67;;;5.90;99.90;;;;;;5001539;28;20472;-81
2021/04/04 08:21:18;;;;;;;5.37;4.13;;;5.90;99.90;;;;;;5002403;28;20548;-80
2021/04/04 08:23:56;;;;;;;4.40;2.80;;;5.90;99.90;;;;;;5005089;28;20429;-80
2021/04/04 08:26:29;;;;;;;7.20;3.77;;;5.90;99.90;;;;;;5004431;28;20429;-80
2021/04/04 08:29:17;;;;;;;9.37;4.20;;;5.90;99.90;;;;;;5005241;28;20536;-79
2021/04/04 08:31:48;;;;;;;4.87;3.70;;;5.80;99.90;;;;;;5008187;28;20426;-80
2021/04/04 08:34:20;;;;;;;9.37;3.77;;;5.90;99.90;;;;;;4983115;28;20602;-79
2021/04/04 08:37:00;;;;;;;10.70;4.97;;;5.90;99.90;;;;;;5004367;28;20429;-78
2021/04/04 08:39:30;;;;;;;7.07;4.30;;;6.00;99.90;;;;;;5008684;28;20433;-79
2021/04/04 08:42:02;;;;;;;7.53;4.40;;;6.10;99.90;;;;;;5006387;28;20461;-81
2021/04/04 08:44:33;;;;;;;6.50;3.77;;;6.20;99.90;;;;;;5008098;28;20422;-80
2021/04/04 08:47:09;;;;;;;13.10;5.93;;;6.30;99.90;;;;;;5008019;28;20429;-81
2021/04/04 08:49:36;;;;;;;5.03;4.07;;;6.30;99.90;;;;;;5004321;28;20438;-80
2021/04/04 08:52:18;;;;;;;11.33;4.20;;;6.30;99.90;;;;;;4986395;28;20483;-80
2021/04/04 08:54:51;;;;;;;9.97;3.73;;;6.40;99.90;;;;;;4991276;28;20927;-80
2021/04/04 08:57:30;;;;;;;9.93;4.27;;;6.50;99.90;;;;;;4998707;28;20453;-79
2021/04/04 08:59:56;;;;;;;7.60;3.97;;;6.60;99.90;;;;;;5003408;28;20804;-80
2021/04/04 09:02:27;;;;;;;15.00;6.40;;;6.50;99.90;;;;;;5010115;28;20425;-80
2021/04/04 09:05:01;;;;;;;7.63;4.20;;;6.50;99.90;;;;;;5008349;28;20249;-80
2021/04/04 09:07:27;;;;;;;6.03;4.47;;;6.50;99.90;;;;;;4986930;28;20452;-79
2021/04/04 09:09:53;;;;;;;9.53;5.17;;;6.40;99.90;;;;;;4992131;28;20421;-80
2021/04/04 09:12:21;;;;;;;9.40;3.77;;;6.40;99.90;;;;;;5014496;28;20436;-80
2021/04/04 09:14:47;;;;;;;8.63;4.70;;;6.30;99.90;;;;;;5012979;28;20225;-80
2021/04/04 09:17:16;;;;;;;7.73;4.30;;;6.20;99.90;;;;;;5011920;28;20437;-79
2021/04/04 09:19:45;;;;;;;11.00;4.60;;;6.20;99.90;;;;;;4995740;28;20456;-79
2021/04/04 09:22:20;;;;;;;8.97;4.23;;;6.20;99.90;;;;;;5014104;28;20435;-80
2021/04/04 09:24:56;;;;;;;10.70;5.00;;;6.20;99.90;;;;;;5013400;28;20482;-80
2021/04/04 09:27:25;;;;;;;8.60;4.67;;;6.30;99.90;;;;;;5012441;28;20529;-80
2021/04/04 09:29:54;;;;;;;7.20;4.43;;;6.30;99.90;;;;;;5012597;28;20476;-80
2021/04/04 09:32:42;;;;;;;18.00;5.00;;;6.30;99.90;;;;;;5008851;28;20431;-81
2021/04/04 09:35:19;;;;;;;6.03;3.83;;;6.40;99.90;;;;;;5012442;28;22140;-81
2021/04/04 09:37:46;;;;;;;8.60;4.40;;;6.40;99.90;;;;;;5011997;28;20436;-81
2021/04/04 09:40:14;;;;;;;6.20;4.10;;;6.50;99.90;;;;;;4988881;28;21310;-80
2021/04/04 09:42:40;;;;;;;11.60;5.10;;;6.40;99.90;;;;;;5012491;28;21051;-81
2021/04/04 09:45:19;;;;;;;6.60;3.97;;;6.50;99.90;;;;;;5010242;28;20437;-81
2021/04/04 09:47:47;;;;;;;8.07;3.90;;;6.60;99.90;;;;;;5012999;28;20208;-82
2021/04/04 09:50:29;;;;;;;11.70;3.90;;;6.70;99.90;;;;;;5012133;28;20440;-82
2021/04/04 09:52:56;;;;;;;7.73;4.20;;;6.70;99.90;;;;;;5012278;28;20750;-82
2021/04/04 09:55:24;;;;;;;6.77;4.47;;;6.70;99.90;;;;;;5010190;28;20429;-82
2021/04/04 09:57:53;;;;;;;9.47;4.53;;;6.60;99.90;;;;;;5008597;28;23172;-84
2021/04/04 10:00:24;;;;;;;19.80;4.83;;;6.70;99.90;;;;;;5006936;28;20479;-80
2021/04/04 10:02:50;;;;;;;6.93;3.60;;;6.60;99.90;;;;;;5009783;28;20440;-84
2021/04/04 10:05:29;;;;;;;10.23;4.63;;;6.60;99.90;;;;;;5006402;28;20499;-80
2021/04/04 10:08:09;;;;;;;5.27;3.70;;;6.80;99.90;;;;;;5013634;28;20448;-81
2021/04/04 10:10:36;;;;;;;9.53;5.07;;;6.80;99.90;;;;;;5014460;28;20436;-82
2021/04/04 10:13:03;;;;;;;7.97;4.20;;;6.70;99.90;;;;;;5014194;28;21207;-80
2021/04/04 10:15:46;;;;;;;4.83;4.00;;;6.80;99.90;;;;;;5014789;28;20425;-80
2021/04/04 10:18:14;;;;;;;6.97;4.30;;;6.70;99.90;;;;;;5013050;28;20425;-82
2021/04/04 10:20:55;;;;;;;8.80;3.83;;;6.80;99.90;;;;;;5012653;28;20528;-82
2021/04/04 10:23:32;;;;;;;4.57;3.27;;;6.90;99.90;;;;;;5014883;28;20444;-81
2021/04/04 10:26:03;;;;;;;9.63;3.90;;;7.00;99.90;;;;;;5014619;28;20433;-80
2021/04/04 10:28:42;;;;;;;6.23;3.40;;;7.00;99.90;;;;;;4997291;28;20954;-81
2021/04/04 10:31:07;;;;;;;11.33;4.33;;;7.00;99.90;;;;;;5011591;28;20489;-85
2021/04/04 10:33:33;;;;;;;8.37;3.60;;;7.10;99.90;;;;;;5012678;28;20457;-89
2021/04/04 10:36:17;;;;;;;6.90;3.60;;;7.10;99.90;;;;;;4999727;28;20174;-87
2021/04/04 10:38:44;;;;;;;7.03;3.67;;;7.10;99.90;;;;;;5014232;28;20576;-86
2021/04/04 10:41:10;;;;;;;5.83;3.77;;;7.20;99.90;;;;;;5014452;28;20433;-86
2021/04/04 10:43:45;;;;;;;13.43;4.10;;;7.20;99.90;;;;;;5013507;28;20437;-84
2021/04/04 10:46:23;;;;;;;7.60;3.97;;;7.20;99.90;;;;;;4995041;28;20773;-85
2021/04/04 10:48:49;;;;;;;6.03;3.40;;;7.10;99.90;;;;;;4989776;28;20480;-86
2021/04/04 10:51:17;;;;;;;5.73;3.77;;;7.20;99.90;;;;;;4998469;28;20422;-84
2021/04/04 10:53:50;;;;;;;6.40;4.03;;;7.30;99.90;;;;;;4999822;28;20556;-91
2021/04/04 10:56:17;;;;;;;9.27;5.10;;;7.30;99.90;;;;;;5010235;28;20524;-85
2021/04/04 10:58:44;;;;;;;11.07;3.87;;;7.30;99.90;;;;;;5018800;28;20456;-91
2021/04/04 11:01:12;;;;;;;8.53;3.87;;;7.20;99.90;;;;;;5016970;28;20439;-85
2021/04/04 11:03:42;;;;;;;5.00;3.00;;;7.20;99.90;;;;;;5005933;28;20454;-88
2021/04/04 11:06:09;;;;;;;5.57;3.23;;;7.20;99.90;;;;;;5012458;28;20439;-90
2021/04/04 11:08:39;;;;;;;10.70;3.90;;;7.20;99.90;;;;;;5009756;28;20831;-84
2021/04/04 11:11:06;;;;;;;7.13;4.30;;;7.20;99.90;;;;;;4993483;28;20839;-86
2021/04/04 11:13:35;;;;;;;4.60;4.20;;;7.30;99.90;;;;;;4996295;28;20528;-86
2021/04/04 11:16:06;;;;;;;11.93;4.60;;;7.40;99.90;;;;;;5000704;28;20430;-88
2021/04/04 11:18:40;;;;;;;5.13;4.50;;;7.20;99.90;;;;;;5028154;22;21140;-78
2021/04/04 11:21:18;;;;;;;5.83;3.47;;;7.20;99.90;;;;;;4997913;28;20436;-76
2021/04/04 11:23:45;;;;;;;9.30;3.70;;;7.20;99.90;;;;;;5000490;28;20434;-81
2021/04/04 11:26:29;;;;;;;4.30;3.30;;;7.20;99.90;;;;;;4999997;28;20441;-80
2021/04/04 11:29:12;;;;;;;4.30;3.43;;;7.20;99.90;;;;;;5000869;28;20458;-76
2021/04/04 11:31:43;;;;;;;5.10;3.20;;;7.40;99.90;;;;;;4997931;28;20473;-76
2021/04/04 11:34:29;;;;;;;7.13;3.40;;;7.60;99.90;;;;;;5000287;28;20426;-76
2021/04/04 11:36:56;;;;;;;3.33;3.00;;;7.70;99.90;;;;;;5000800;28;20606;-75
2021/04/04 11:39:22;;;;;;;5.77;2.50;;;7.80;99.90;;;;;;5000329;28;20500;-75
2021/04/04 11:42:00;;;;;;;3.53;2.73;;;7.80;99.90;;;;;;5000116;28;20887;-75
2021/04/04 11:44:31;;;;;;;4.70;3.20;;;7.80;99.90;;;;;;5001619;28;20254;-76
2021/04/04 11:47:02;;;;;;;3.47;3.13;;;7.80;99.90;;;;;;5000674;28;20482;-77
2021/04/04 11:49:28;;;;;;;6.20;3.37;;;7.80;99.90;;;;;;5002984;28;20529;-82
2021/04/04 11:51:54;;;;;;;8.63;3.47;;;7.70;99.90;;;;;;5004885;28;21045;-77
2021/04/04 11:54:55;;;;;;;6.03;3.40;;;7.70;99.90;;;;;;5001702;28;20214;-72
2021/04/04 11:57:26;;;;;;;6.73;3.40;;;7.80;99.90;;;;;;5001727;28;20443;-73
2021/04/04 12:00:21;;;;;;;6.40;3.50;;;7.80;99.90;;;;;;5002142;28;20763;-72
2021/04/04 12:03:00;;;;;;;9.50;3.80;;;7.90;99.90;;;;;;4963668;28;20436;-78
2021/04/04 12:05:31;;;;;;;3.40;3.10;;;8.00;99.90;;;;;;5002521;28;20423;-76
2021/04/04 12:07:58;;;;;;;5.97;4.80;;;7.90;99.90;;;;;;5001042;28;20473;-77
2021/04/04 12:10:25;;;;;;;6.40;3.53;;;7.90;99.90;;;;;;5004137;28;20497;-77
2021/04/04 12:12:52;;;;;;;6.90;3.70;;;7.90;99.90;;;;;;5001622;28;20472;-75
2021/04/04 12:15:23;;;;;;;7.10;4.07;;;7.90;99.90;;;;;;4989595;28;20432;-75
2021/04/04 12:17:51;;;;;;;6.97;3.70;;;7.90;99.90;;;;;;5000141;28;20430;-78
2021/04/04 12:20:29;;;;;;;7.23;4.50;;;8.00;99.90;;;;;;4988901;28;20426;-83
2021/04/04 12:22:55;;;;;;;7.00;3.80;;;8.10;99.90;;;;;;5001367;28;20496;-76
2021/04/04 12:25:23;;;;;;;4.83;3.40;;;8.20;99.90;;;;;;4998629;28;20938;-75
2021/04/04 12:27:51;;;;;;;6.07;4.20;;;8.30;99.90;;;;;;4999304;28;20535;-74
2021/04/04 12:30:27;;;;;;;6.13;4.77;;;8.30;99.90;;;;;;4999615;28;20437;-74
2021/04/04 12:33:02;;;;;;;7.53;4.47;;;8.30;99.90;;;;;;4997322;28;20459;-73
2021/04/04 12:35:28;;;;;;;4.83;3.97;;;8.50;99.90;;;;;;4999167;28;20437;-72
2021/04/04 12:37:54;;;;;;;3.23;3.03;;;8.40;99.90;;;;;;4998373;28;20508;-72
2021/04/04 12:40:20;;;;;;;6.50;3.10;;;8.30;99.90;;;;;;5001719;28;20232;-72
2021/04/04 12:42:45;;;;;;;3.83;2.83;;;8.30;99.90;;;;;;4982889;28;20190;-75
2021/04/04 12:45:13;;;;;;;6.37;3.67;;;8.20;99.90;;;;;;5000705;28;20175;-75
2021/04/04 12:47:41;;;;;;;5.53;4.20;;;8.20;99.90;;;;;;5000106;28;20269;-76
2021/04/04 12:50:12;;;;;;;4.73;3.07;;;8.20;99.90;;;;;;4998605;28;20462;-75
2021/04/04 12:52:39;;;;;;;5.70;3.60;;;8.20;99.90;;;;;;5001270;28;20423;-79
2021/04/04 12:55:09;;;;;;;7.03;3.90;;;8.10;99.90;;;;;;4984410;28;20426;-81
2021/04/04 12:57:35;;;;;;;5.63;3.47;;;8.10;99.90;;;;;;4995809;28;20441;-80
2021/04/04 13:00:01;;;;;;;3.47;2.90;;;8.10;99.90;;;;;;4999653;28;20440;-75
2021/04/04 13:02:27;;;;;;;8.30;3.83;;;8.20;99.90;;;;;;4999312;28;20437;-84
2021/04/04 13:04:59;;;;;;;5.33;3.30;;;8.20;99.90;;;;;;4999297;28;20481;-78
2021/04/04 13:07:26;;;;;;;4.07;3.40;;;8.20;99.90;;;;;;5001816;28;20212;-87
2021/04/04 13:09:52;;;;;;;5.33;3.77;;;8.30;99.90;;;;;;5003174;28;20413;-78
2021/04/04 13:12:21;;;;;;;4.83;3.30;;;8.40;99.90;;;;;;5000799;28;20437;-74
2021/04/04 13:14:47;;;;;;;4.67;3.07;;;8.40;99.90;;;;;;4999603;28;20175;-75
2021/04/04 13:17:12;;;;;;;6.80;3.70;;;8.40;99.90;;;;;;4998315;28;20921;-77
2021/04/04 13:19:41;;;;;;;5.60;3.27;;;8.40;99.90;;;;;;4999423;28;20201;-75
2021/04/04 13:22:13;;;;;;;4.00;3.20;;;8.40;99.90;;;;;;5000410;28;20190;-80